createdAt,value
2018-02-22T00:00:14.716Z,1010.17
2018-02-22T00:01:14.693Z,1010.12
2018-02-22T00:02:14.659Z,1010.12
2018-02-22T00:03:14.628Z,1010.12
2018-02-22T00:04:14.596Z,1010.11
2018-02-22T00:05:14.573Z,1010.08
2018-02-22T00:06:14.536Z,1010.06
2018-02-22T00:07:14.508Z,1010.07
2018-02-22T00:08:14.483Z,1010.03
2018-02-22T00:09:14.452Z,1010.07
2018-02-22T00:10:14.427Z,1010.04
2018-02-22T00:11:14.395Z,1010.05
2018-02-22T00:12:14.373Z,1010.03
2018-02-22T00:13:14.336Z,1010.03
2018-02-22T00:14:14.307Z,1010.05
2018-02-22T00:15:14.276Z,1010.08
2018-02-22T00:16:14.248Z,1010.05
2018-02-22T00:17:14.223Z,1010.07
2018-02-22T00:18:14.192Z,1010.10
2018-02-22T00:19:14.160Z,1010.12
2018-02-22T00:20:14.135Z,1010.09
2018-02-22T00:21:14.105Z,1010.13
2018-02-22T00:22:14.078Z,1010.13
2018-02-22T00:23:14.043Z,1010.13
2018-02-22T00:24:14.017Z,1010.10
2018-02-22T00:25:13.984Z,1010.11
2018-02-22T00:26:13.954Z,1010.10
2018-02-22T00:27:13.929Z,1010.12
2018-02-22T00:28:13.896Z,1010.08
2018-02-22T00:29:13.875Z,1010.04
2018-02-22T00:30:13.840Z,1010.03
2018-02-22T00:31:13.812Z,1010.06
2018-02-22T00:32:13.784Z,1010.06
2018-02-22T00:33:13.755Z,1010.03
2018-02-22T00:34:13.721Z,1009.97
2018-02-22T00:35:13.696Z,1009.99
2018-02-22T00:36:13.664Z,1009.98
2018-02-22T00:37:13.638Z,1009.98
2018-02-22T00:38:13.608Z,1009.96
2018-02-22T00:39:13.577Z,1010.00
2018-02-22T00:40:13.547Z,1009.91
2018-02-22T00:41:13.522Z,1009.94
2018-02-22T00:42:13.490Z,1009.93
2018-02-22T00:43:13.462Z,1009.93
2018-02-22T00:44:13.434Z,1009.91
2018-02-22T00:45:13.401Z,1009.92
2018-02-22T00:46:13.368Z,1009.93
2018-02-22T00:47:13.345Z,1009.93
2018-02-22T00:48:13.314Z,1009.99
2018-02-22T00:49:13.288Z,1009.96
2018-02-22T00:50:13.264Z,1009.94
2018-02-22T00:51:13.228Z,1009.95
2018-02-22T00:52:13.214Z,1009.95
2018-02-22T00:53:13.167Z,1010.00
2018-02-22T00:54:13.142Z,1009.96
2018-02-22T00:55:13.114Z,1009.97
2018-02-22T00:56:13.083Z,1009.95
2018-02-22T00:57:13.054Z,1009.91
2018-02-22T00:58:13.026Z,1009.89
2018-02-22T00:59:12.993Z,1009.89
2018-02-22T01:00:12.962Z,1009.93
2018-02-22T01:01:12.936Z,1009.94
2018-02-22T01:02:12.906Z,1009.85
2018-02-22T01:03:12.874Z,1009.89
2018-02-22T01:04:12.848Z,1009.92
2018-02-22T01:05:12.819Z,1009.88
2018-02-22T01:06:12.791Z,1009.88
2018-02-22T01:07:12.760Z,1009.86
2018-02-22T01:08:12.729Z,1009.89
2018-02-22T01:09:12.703Z,1009.86
2018-02-22T01:10:12.672Z,1009.88
2018-02-22T01:11:12.640Z,1009.86
2018-02-22T01:12:12.607Z,1009.87
2018-02-22T01:13:12.585Z,1009.86
2018-02-22T01:14:12.560Z,1009.91
2018-02-22T01:15:12.523Z,1009.86
2018-02-22T01:16:12.498Z,1009.93
2018-02-22T01:17:12.464Z,1009.92
2018-02-22T01:18:12.438Z,1009.92
2018-02-22T01:19:12.407Z,1009.92
2018-02-22T01:20:12.379Z,1009.98
2018-02-22T01:21:12.347Z,1009.91
2018-02-22T01:22:12.318Z,1009.92
2018-02-22T01:23:12.292Z,1009.97
2018-02-22T01:24:12.261Z,1009.99
2018-02-22T01:25:12.233Z,1009.94
2018-02-22T01:26:12.199Z,1009.93
2018-02-22T01:27:12.173Z,1009.96
2018-02-22T01:28:12.141Z,1009.92
2018-02-22T01:29:12.117Z,1009.93
2018-02-22T01:30:12.083Z,1009.94
2018-02-22T01:31:12.057Z,1009.92
2018-02-22T01:32:12.024Z,1009.96
2018-02-22T01:33:12.000Z,1009.96
2018-02-22T01:34:11.968Z,1009.91
2018-02-22T01:35:11.938Z,1009.93
2018-02-22T01:36:11.908Z,1009.94
2018-02-22T01:37:11.882Z,1009.93
2018-02-22T01:38:11.854Z,1009.93
2018-02-22T01:39:11.821Z,1009.93
2018-02-22T01:40:11.793Z,1009.93
2018-02-22T01:41:11.767Z,1009.92
2018-02-22T01:42:11.737Z,1009.93
2018-02-22T01:43:11.705Z,1009.92
2018-02-22T01:44:11.673Z,1009.93
2018-02-22T01:45:11.648Z,1009.90
2018-02-22T01:46:11.619Z,1009.89
2018-02-22T01:47:11.589Z,1009.91
2018-02-22T01:48:11.558Z,1009.91
2018-02-22T01:49:11.528Z,1009.87
2018-02-22T01:50:11.499Z,1009.87
2018-02-22T01:51:11.474Z,1009.81
2018-02-22T01:52:11.443Z,1009.78
2018-02-22T01:53:11.411Z,1009.80
2018-02-22T01:54:11.393Z,1009.80
2018-02-22T01:55:11.352Z,1009.80
2018-02-22T01:56:11.324Z,1009.81
2018-02-22T01:57:11.298Z,1009.79
2018-02-22T01:58:11.278Z,1009.80
2018-02-22T01:59:11.233Z,1009.81
2018-02-22T02:00:11.206Z,1009.82
2018-02-22T02:01:11.178Z,1009.81
2018-02-22T02:02:11.152Z,1009.78
2018-02-22T02:03:11.119Z,1009.78
2018-02-22T02:04:11.107Z,1009.79
2018-02-22T02:05:11.061Z,1009.80
2018-02-22T02:06:11.034Z,1009.80
2018-02-22T02:07:10.998Z,1009.81
2018-02-22T02:08:10.972Z,1009.81
2018-02-22T02:09:10.949Z,1009.78
2018-02-22T02:10:10.917Z,1009.79
2018-02-22T02:11:10.885Z,1009.77
2018-02-22T02:12:10.866Z,1009.78
2018-02-22T02:13:10.826Z,1009.73
2018-02-22T02:14:10.800Z,1009.74
2018-02-22T02:15:10.764Z,1009.74
2018-02-22T02:16:10.742Z,1009.73
2018-02-22T02:17:10.710Z,1009.71
2018-02-22T02:18:10.688Z,1009.71
2018-02-22T02:19:10.652Z,1009.67
2018-02-22T02:20:10.623Z,1009.70
2018-02-22T02:21:10.591Z,1009.69
2018-02-22T02:22:10.565Z,1009.69
2018-02-22T02:23:10.531Z,1009.72
2018-02-22T02:24:10.505Z,1009.71
2018-02-22T02:25:10.476Z,1009.69
2018-02-22T02:26:10.449Z,1009.67
2018-02-22T02:27:10.419Z,1009.67
2018-02-22T02:28:10.390Z,1009.66
2018-02-22T02:29:10.366Z,1009.70
2018-02-22T02:30:10.331Z,1009.63
2018-02-22T02:31:10.298Z,1009.63
2018-02-22T02:32:10.269Z,1009.62
2018-02-22T02:33:10.243Z,1009.66
2018-02-22T02:34:10.215Z,1009.62
2018-02-22T02:35:10.185Z,1009.62
2018-02-22T02:36:10.155Z,1009.62
2018-02-22T02:37:10.122Z,1009.62
2018-02-22T02:38:10.096Z,1009.59
2018-02-22T02:39:10.079Z,1009.61
2018-02-22T02:40:10.038Z,1009.58
2018-02-22T02:41:10.005Z,1009.56
2018-02-22T02:42:09.976Z,1009.55
2018-02-22T02:43:09.948Z,1009.54
2018-02-22T02:44:09.923Z,1009.51
2018-02-22T02:45:09.888Z,1009.53
2018-02-22T02:46:09.860Z,1009.53
2018-02-22T02:47:09.837Z,1009.49
2018-02-22T02:48:09.822Z,1009.52
2018-02-22T02:49:09.776Z,1009.53
2018-02-22T02:50:09.742Z,1009.48
2018-02-22T02:51:09.714Z,1009.50
2018-02-22T02:52:09.687Z,1009.49
2018-02-22T02:53:09.651Z,1009.48
2018-02-22T02:54:09.623Z,1009.46
2018-02-22T02:55:09.599Z,1009.46
2018-02-22T02:56:09.571Z,1009.46
2018-02-22T02:57:09.538Z,1009.48
2018-02-22T02:58:09.509Z,1009.47
2018-02-22T02:59:09.480Z,1009.50
2018-02-22T03:00:09.450Z,1009.50
2018-02-22T03:01:09.417Z,1009.51
2018-02-22T03:02:09.393Z,1009.47
2018-02-22T03:03:09.362Z,1009.51
2018-02-22T03:04:09.335Z,1009.43
2018-02-22T03:05:09.307Z,1009.50
2018-02-22T03:06:09.273Z,1009.45
2018-02-22T03:07:09.247Z,1009.46
2018-02-22T03:08:09.212Z,1009.45
2018-02-22T03:09:09.185Z,1009.46
2018-02-22T03:10:09.153Z,1009.47
2018-02-22T03:11:09.125Z,1009.39
2018-02-22T03:12:09.094Z,1009.45
2018-02-22T03:13:09.078Z,1009.51
2018-02-22T03:14:09.041Z,1009.47
2018-02-22T03:15:09.006Z,1009.48
2018-02-22T03:16:08.973Z,1009.50
2018-02-22T03:17:08.949Z,1009.45
2018-02-22T03:18:08.916Z,1009.48
2018-02-22T03:19:08.885Z,1009.46
2018-02-22T03:20:08.854Z,1009.48
2018-02-22T03:21:08.851Z,1009.44
2018-02-22T03:22:08.798Z,1009.46
2018-02-22T03:23:08.771Z,1009.48
2018-02-22T03:24:08.743Z,1009.47
2018-02-22T03:25:08.711Z,1009.47
2018-02-22T03:26:08.679Z,1009.38
2018-02-22T03:27:08.652Z,1009.41
2018-02-22T03:28:08.627Z,1009.44
2018-02-22T03:29:08.589Z,1009.42
2018-02-22T03:30:08.565Z,1009.43
2018-02-22T03:31:08.534Z,1009.40
2018-02-22T03:32:08.501Z,1009.43
2018-02-22T03:33:08.475Z,1009.40
2018-02-22T03:34:08.447Z,1009.40
2018-02-22T03:35:08.413Z,1009.43
2018-02-22T03:36:08.382Z,1009.43
2018-02-22T03:37:08.353Z,1009.43
2018-02-22T03:38:08.333Z,1009.44
2018-02-22T03:39:08.296Z,1009.46
2018-02-22T03:40:08.265Z,1009.46
2018-02-22T03:41:08.237Z,1009.45
2018-02-22T03:42:08.207Z,1009.46
2018-02-22T03:43:08.175Z,1009.47
2018-02-22T03:44:08.147Z,1009.49
2018-02-22T03:45:08.118Z,1009.45
2018-02-22T03:46:08.086Z,1009.45
2018-02-22T03:47:08.058Z,1009.47
2018-02-22T03:48:08.030Z,1009.43
2018-02-22T03:49:07.996Z,1009.41
2018-02-22T03:50:07.966Z,1009.43
2018-02-22T03:51:07.942Z,1009.47
2018-02-22T03:52:07.911Z,1009.44
2018-02-22T03:53:07.881Z,1009.44
2018-02-22T03:54:07.852Z,1009.40
2018-02-22T03:55:07.822Z,1009.42
2018-02-22T03:56:07.788Z,1009.43
2018-02-22T03:57:07.762Z,1009.45
2018-02-22T03:58:07.731Z,1009.42
2018-02-22T03:59:07.703Z,1009.48
2018-02-22T04:00:07.670Z,1009.46
2018-02-22T04:01:07.647Z,1009.46
2018-02-22T04:02:07.612Z,1009.47
2018-02-22T04:03:07.583Z,1009.50
2018-02-22T04:04:07.555Z,1009.46
2018-02-22T04:05:07.522Z,1009.50
2018-02-22T04:06:07.496Z,1009.53
2018-02-22T04:07:07.466Z,1009.53
2018-02-22T04:08:07.438Z,1009.54
2018-02-22T04:09:07.411Z,1009.54
2018-02-22T04:10:07.377Z,1009.54
2018-02-22T04:11:07.342Z,1009.50
2018-02-22T04:12:07.315Z,1009.56
2018-02-22T04:13:07.284Z,1009.53
2018-02-22T04:14:07.259Z,1009.51
2018-02-22T04:15:07.224Z,1009.53
2018-02-22T04:16:07.197Z,1009.56
2018-02-22T04:17:07.187Z,1009.55
2018-02-22T04:18:07.139Z,1009.54
2018-02-22T04:19:07.110Z,1009.58
2018-02-22T04:20:07.079Z,1009.54
2018-02-22T04:21:07.046Z,1009.57
2018-02-22T04:22:07.018Z,1009.58
2018-02-22T04:23:06.988Z,1009.56
2018-02-22T04:24:06.962Z,1009.60
2018-02-22T04:25:06.943Z,1009.59
2018-02-22T04:26:06.940Z,1009.53
2018-02-22T04:27:06.868Z,1009.59
2018-02-22T04:28:06.843Z,1009.57
2018-02-22T04:29:06.808Z,1009.59
2018-02-22T04:30:06.786Z,1009.59
2018-02-22T04:31:06.751Z,1009.58
2018-02-22T04:32:06.724Z,1009.59
2018-02-22T04:33:06.694Z,1009.59
2018-02-22T04:34:06.666Z,1009.63
2018-02-22T04:35:06.633Z,1009.60
2018-02-22T04:36:06.602Z,1009.67
2018-02-22T04:37:06.577Z,1009.65
2018-02-22T04:38:06.551Z,1009.62
2018-02-22T04:39:06.510Z,1009.60
2018-02-22T04:40:06.485Z,1009.65
2018-02-22T04:41:06.458Z,1009.66
2018-02-22T04:42:06.429Z,1009.66
2018-02-22T04:43:06.394Z,1009.68
2018-02-22T04:44:06.364Z,1009.68
2018-02-22T04:45:06.342Z,1009.67
2018-02-22T04:46:06.309Z,1009.65
2018-02-22T04:47:06.277Z,1009.64
2018-02-22T04:48:06.249Z,1009.68
2018-02-22T04:49:06.220Z,1009.60
2018-02-22T04:50:06.189Z,1009.64
2018-02-22T04:51:06.160Z,1009.60
2018-02-22T04:52:06.130Z,1009.61
2018-02-22T04:53:06.099Z,1009.62
2018-02-22T04:54:06.067Z,1009.63
2018-02-22T04:55:06.041Z,1009.59
2018-02-22T04:56:06.009Z,1009.61
2018-02-22T04:57:05.979Z,1009.59
2018-02-22T04:58:05.952Z,1009.61
2018-02-22T04:59:05.920Z,1009.66
2018-02-22T05:00:05.891Z,1009.64
2018-02-22T05:01:05.864Z,1009.58
2018-02-22T05:02:05.837Z,1009.66
2018-02-22T05:03:05.799Z,1009.65
2018-02-22T05:04:05.792Z,1009.63
2018-02-22T05:05:05.743Z,1009.64
2018-02-22T05:06:05.714Z,1009.67
2018-02-22T05:07:05.689Z,1009.68
2018-02-22T05:08:05.651Z,1009.65
2018-02-22T05:09:05.626Z,1009.70
2018-02-22T05:10:05.602Z,1009.69
2018-02-22T05:11:05.565Z,1009.73
2018-02-22T05:12:05.532Z,1009.65
2018-02-22T05:13:05.509Z,1009.68
2018-02-22T05:14:05.488Z,1009.69
2018-02-22T05:15:05.447Z,1009.70
2018-02-22T05:16:05.413Z,1009.68
2018-02-22T05:17:05.391Z,1009.69
2018-02-22T05:18:05.360Z,1009.69
2018-02-22T05:19:05.328Z,1009.73
2018-02-22T05:20:05.295Z,1009.68
2018-02-22T05:21:05.271Z,1009.68
2018-02-22T05:22:05.239Z,1009.69
2018-02-22T05:23:05.208Z,1009.71
2018-02-22T05:24:05.179Z,1009.64
2018-02-22T05:25:05.145Z,1009.71
2018-02-22T05:26:05.122Z,1009.64
2018-02-22T05:27:05.109Z,1009.70
2018-02-22T05:28:05.061Z,1009.69
2018-02-22T05:29:05.029Z,1009.68
2018-02-22T05:30:05.004Z,1009.66
2018-02-22T05:31:04.966Z,1009.67
2018-02-22T05:32:04.937Z,1009.71
2018-02-22T05:33:04.914Z,1009.69
2018-02-22T05:34:04.886Z,1009.70
2018-02-22T05:35:04.848Z,1009.67
2018-02-22T05:36:04.820Z,1009.70
2018-02-22T05:37:04.792Z,1009.74
2018-02-22T05:38:04.763Z,1009.74
2018-02-22T05:39:04.730Z,1009.78
2018-02-22T05:40:04.701Z,1009.81
2018-02-22T05:41:04.673Z,1009.81
2018-02-22T05:42:04.644Z,1009.80
2018-02-22T05:43:04.617Z,1009.84
2018-02-22T05:44:04.603Z,1009.85
2018-02-22T05:45:04.554Z,1009.82
2018-02-22T05:46:04.522Z,1009.85
2018-02-22T05:47:04.493Z,1009.86
2018-02-22T05:48:04.467Z,1009.86
2018-02-22T05:49:04.430Z,1009.87
2018-02-22T05:50:04.404Z,1009.90
2018-02-22T05:51:04.379Z,1009.91
2018-02-22T05:52:04.350Z,1009.93
2018-02-22T05:53:04.315Z,1009.91
2018-02-22T05:54:04.284Z,1009.88
2018-02-22T05:55:04.255Z,1009.94
2018-02-22T05:56:04.227Z,1009.92
2018-02-22T05:57:04.194Z,1009.93
2018-02-22T05:58:04.163Z,1009.91
2018-02-22T05:59:04.134Z,1009.94
2018-02-22T06:00:04.107Z,1009.95
2018-02-22T06:01:04.076Z,1009.94
2018-02-22T06:02:04.046Z,1009.96
2018-02-22T06:03:04.019Z,1010.00
2018-02-22T06:04:03.986Z,1009.99
2018-02-22T06:05:03.959Z,1009.99
2018-02-22T06:06:03.925Z,1009.99
2018-02-22T06:07:03.898Z,1009.97
2018-02-22T06:08:03.866Z,1009.99
2018-02-22T06:09:03.840Z,1009.99
2018-02-22T06:10:03.809Z,1010.00
2018-02-22T06:11:03.780Z,1010.00
2018-02-22T06:12:03.748Z,1009.99
2018-02-22T06:13:03.719Z,1010.00
2018-02-22T06:14:03.689Z,1009.99
2018-02-22T06:15:03.660Z,1010.01
2018-02-22T06:16:03.631Z,1010.02
2018-02-22T06:17:03.625Z,1009.98
2018-02-22T06:18:03.572Z,1010.00
2018-02-22T06:19:03.542Z,1010.03
2018-02-22T06:20:03.513Z,1010.03
2018-02-22T06:21:03.480Z,1010.01
2018-02-22T06:22:03.454Z,1010.05
2018-02-22T06:23:03.425Z,1010.01
2018-02-22T06:24:03.394Z,1010.01
2018-02-22T06:25:03.363Z,1010.01
2018-02-22T06:26:03.338Z,1010.05
2018-02-22T06:27:03.302Z,1009.99
2018-02-22T06:28:03.275Z,1010.02
2018-02-22T06:29:03.242Z,1010.06
2018-02-22T06:30:03.216Z,1010.04
2018-02-22T06:31:03.183Z,1010.07
2018-02-22T06:32:03.157Z,1010.03
2018-02-22T06:33:03.125Z,1010.09
2018-02-22T06:34:03.092Z,1010.10
2018-02-22T06:35:03.067Z,1010.08
2018-02-22T06:36:03.353Z,1010.16
2018-02-22T06:37:03.360Z,1010.13
2018-02-22T06:38:03.340Z,1010.15
2018-02-22T06:39:03.304Z,1010.13
2018-02-22T06:40:03.161Z,1010.15
2018-02-22T06:41:03.141Z,1010.17
2018-02-22T06:42:03.241Z,1010.22
2018-02-22T06:43:02.862Z,1010.18
2018-02-22T06:44:02.838Z,1010.19
2018-02-22T06:45:02.780Z,1010.18
2018-02-22T06:46:02.740Z,1010.22
2018-02-22T06:47:02.711Z,1010.22
2018-02-22T06:48:02.680Z,1010.18
2018-02-22T06:49:02.654Z,1010.21
2018-02-22T06:50:02.626Z,1010.21
2018-02-22T06:51:02.588Z,1010.25
2018-02-22T06:52:02.561Z,1010.22
2018-02-22T06:53:02.532Z,1010.25
2018-02-22T06:54:02.504Z,1010.26
2018-02-22T06:55:02.475Z,1010.25
2018-02-22T06:56:02.444Z,1010.23
2018-02-22T06:57:02.439Z,1010.23
2018-02-22T06:58:02.456Z,1010.24
2018-02-22T06:59:02.351Z,1010.24
2018-02-22T07:00:02.323Z,1010.21
2018-02-22T07:01:02.299Z,1010.21
2018-02-22T07:02:02.269Z,1010.21
2018-02-22T07:03:02.236Z,1010.24
2018-02-22T07:04:02.202Z,1010.21
2018-02-22T07:05:02.174Z,1010.24
2018-02-22T07:06:02.197Z,1010.22
2018-02-22T07:07:02.124Z,1010.24
2018-02-22T07:08:02.090Z,1010.24
2018-02-22T07:09:02.073Z,1010.26
2018-02-22T07:10:02.034Z,1010.21
2018-02-22T07:11:02.000Z,1010.23
2018-02-22T07:12:01.974Z,1010.23
2018-02-22T07:13:01.936Z,1010.22
2018-02-22T07:14:01.909Z,1010.22
2018-02-22T07:15:01.886Z,1010.24
2018-02-22T07:16:01.850Z,1010.30
2018-02-22T07:17:01.822Z,1010.29
2018-02-22T07:18:01.793Z,1010.28
2018-02-22T07:19:01.766Z,1010.24
2018-02-22T07:20:01.730Z,1010.29
2018-02-22T07:21:01.702Z,1010.29
2018-02-22T07:22:01.674Z,1010.30
2018-02-22T07:23:01.642Z,1010.30
2018-02-22T07:24:02.590Z,1010.26
2018-02-22T07:25:01.588Z,1010.28
2018-02-22T07:26:01.559Z,1010.27
2018-02-22T07:27:01.524Z,1010.24
2018-02-22T07:28:01.495Z,1010.28
2018-02-22T07:29:01.523Z,1010.25
2018-02-22T07:30:01.443Z,1010.23
2018-02-22T07:31:01.409Z,1010.27
2018-02-22T07:32:01.377Z,1010.20
2018-02-22T07:33:01.350Z,1010.21
2018-02-22T07:34:01.316Z,1010.18
2018-02-22T07:35:01.295Z,1010.22
2018-02-22T07:36:01.257Z,1010.23
2018-02-22T07:37:01.236Z,1010.24
2018-02-22T07:38:01.201Z,1010.24
2018-02-22T07:39:01.188Z,1010.26
2018-02-22T07:40:01.141Z,1010.24
2018-02-22T07:41:01.111Z,1010.28
2018-02-22T07:42:01.079Z,1010.24
2018-02-22T07:43:01.051Z,1010.31
2018-02-22T07:44:01.026Z,1010.34
2018-02-22T07:45:00.997Z,1010.31
2018-02-22T07:46:00.963Z,1010.30
2018-02-22T07:47:00.998Z,1010.27
2018-02-22T07:48:00.906Z,1010.30
2018-02-22T07:49:00.880Z,1010.26
2018-02-22T07:50:00.851Z,1010.27
2018-02-22T07:51:00.814Z,1010.31
2018-02-22T07:52:00.804Z,1010.30
2018-02-22T07:53:00.757Z,1010.29
2018-02-22T07:54:00.727Z,1010.29
2018-02-22T07:55:00.697Z,1010.29
2018-02-22T07:56:00.666Z,1010.31
2018-02-22T07:57:00.638Z,1010.30
2018-02-22T07:58:00.609Z,1010.33
2018-02-22T07:59:00.654Z,1010.31
2018-02-22T08:00:00.621Z,1010.31
2018-02-22T08:01:00.532Z,1010.30
2018-02-22T08:02:00.488Z,1010.34
2018-02-22T08:03:00.460Z,1010.33
2018-02-22T08:04:00.468Z,1010.34
2018-02-22T08:05:00.409Z,1010.35
2018-02-22T08:06:00.368Z,1010.34
2018-02-22T08:07:00.343Z,1010.32
2018-02-22T08:08:00.322Z,1010.32
2018-02-22T08:09:00.292Z,1010.31
2018-02-22T08:10:00.256Z,1010.34
2018-02-22T08:11:00.223Z,1010.34
2018-02-22T08:12:00.198Z,1010.38
2018-02-22T08:13:00.185Z,1010.33
2018-02-22T08:14:00.138Z,1010.32
2018-02-22T08:15:00.109Z,1010.38
2018-02-22T08:16:00.146Z,1010.38
2018-02-22T08:17:00.044Z,1010.38
2018-02-22T08:18:00.063Z,1010.35
2018-02-22T08:18:59.991Z,1010.43
2018-02-22T08:19:59.958Z,1010.40
2018-02-22T08:20:59.933Z,1010.40
2018-02-22T08:21:59.921Z,1010.41
2018-02-22T08:22:59.874Z,1010.36
2018-02-22T08:23:59.842Z,1010.37
2018-02-22T08:24:59.813Z,1010.38
2018-02-22T08:25:59.829Z,1010.37
2018-02-22T08:26:59.755Z,1010.35
2018-02-22T08:27:59.752Z,1010.38
2018-02-22T08:28:59.807Z,1010.36
2018-02-22T08:29:59.666Z,1010.40
2018-02-22T08:30:59.639Z,1010.38
2018-02-22T08:31:59.615Z,1010.34
2018-02-22T08:32:59.578Z,1010.40
2018-02-22T08:33:59.554Z,1010.40
2018-02-22T08:34:59.520Z,1010.38
2018-02-22T08:35:59.498Z,1010.37
2018-02-22T08:36:59.466Z,1010.34
2018-02-22T08:37:59.432Z,1010.34
2018-02-22T08:38:59.402Z,1010.36
2018-02-22T08:39:59.371Z,1010.37
2018-02-22T08:40:59.348Z,1010.36
2018-02-22T08:41:59.311Z,1010.33
2018-02-22T08:42:59.290Z,1010.34
2018-02-22T08:43:59.257Z,1010.32
2018-02-22T08:44:59.234Z,1010.34
2018-02-22T08:45:59.204Z,1010.34
2018-02-22T08:46:59.190Z,1010.32
2018-02-22T08:47:59.140Z,1010.35
2018-02-22T08:48:59.113Z,1010.38
2018-02-22T08:49:59.082Z,1010.38
2018-02-22T08:50:59.054Z,1010.39
2018-02-22T08:51:59.049Z,1010.42
2018-02-22T08:52:58.998Z,1010.45
2018-02-22T08:53:58.966Z,1010.45
2018-02-22T08:54:58.970Z,1010.48
2018-02-22T08:55:58.930Z,1010.44
2018-02-22T08:56:58.880Z,1010.44
2018-02-22T08:57:58.853Z,1010.46
2018-02-22T08:58:58.818Z,1010.44
2018-02-22T08:59:58.796Z,1010.47
2018-02-22T09:00:58.762Z,1010.49
2018-02-22T09:01:58.735Z,1010.48
2018-02-22T09:02:58.704Z,1010.46
2018-02-22T09:03:58.677Z,1010.45
2018-02-22T09:04:58.643Z,1010.46
2018-02-22T09:05:58.619Z,1010.40
2018-02-22T09:06:58.588Z,1010.46
2018-02-22T09:07:58.562Z,1010.37
2018-02-22T09:08:58.529Z,1010.37
2018-02-22T09:09:58.504Z,1010.36
2018-02-22T09:10:58.471Z,1010.40
2018-02-22T09:11:58.447Z,1010.33
2018-02-22T09:12:58.412Z,1010.39
2018-02-22T09:13:58.388Z,1010.37
2018-02-22T09:14:58.354Z,1010.36
2018-02-22T09:15:58.324Z,1010.37
2018-02-22T09:16:58.300Z,1010.33
2018-02-22T09:17:58.269Z,1010.35
2018-02-22T09:18:58.244Z,1010.38
2018-02-22T09:19:58.210Z,1010.38
2018-02-22T09:20:58.192Z,1010.31
2018-02-22T09:21:58.154Z,1010.39
2018-02-22T09:22:58.125Z,1010.34
2018-02-22T09:23:58.095Z,1010.36
2018-02-22T09:24:58.068Z,1010.31
2018-02-22T09:25:58.039Z,1010.33
2018-02-22T09:26:58.006Z,1010.38
2018-02-22T09:27:57.978Z,1010.32
2018-02-22T09:28:57.952Z,1010.35
2018-02-22T09:29:57.918Z,1010.31
2018-02-22T09:30:57.901Z,1010.33
2018-02-22T09:31:57.892Z,1010.27
2018-02-22T09:32:58.344Z,1010.26
2018-02-22T09:33:57.809Z,1010.24
2018-02-22T09:34:57.778Z,1010.26
2018-02-22T09:35:57.748Z,1010.21
2018-02-22T09:36:57.720Z,1010.19
2018-02-22T09:37:57.689Z,1010.23
2018-02-22T09:38:57.663Z,1010.24
2018-02-22T09:39:57.632Z,1010.19
2018-02-22T09:40:57.601Z,1010.17
2018-02-22T09:41:57.578Z,1010.18
2018-02-22T09:42:57.552Z,1010.14
2018-02-22T09:43:57.518Z,1010.16
2018-02-22T09:44:57.488Z,1010.16
2018-02-22T09:45:57.463Z,1010.17
2018-02-22T09:46:57.429Z,1010.09
2018-02-22T09:47:57.401Z,1010.15
2018-02-22T09:48:57.446Z,1010.17
2018-02-22T09:49:57.351Z,1010.18
2018-02-22T09:50:57.315Z,1010.20
2018-02-22T09:51:57.302Z,1010.18
2018-02-22T09:52:57.259Z,1010.16
2018-02-22T09:53:57.226Z,1010.19
2018-02-22T09:54:57.201Z,1010.19
2018-02-22T09:55:57.187Z,1010.16
2018-02-22T09:56:57.145Z,1010.16
2018-02-22T09:57:57.114Z,1010.22
2018-02-22T09:58:57.086Z,1010.22
2018-02-22T09:59:57.054Z,1010.18
2018-02-22T10:00:57.047Z,1010.21
2018-02-22T10:01:57.029Z,1010.23
2018-02-22T10:02:56.970Z,1010.19
2018-02-22T10:03:56.939Z,1010.23
2018-02-22T10:04:56.914Z,1010.19
2018-02-22T10:05:56.903Z,1010.22
2018-02-22T10:06:56.886Z,1010.21
2018-02-22T10:07:56.823Z,1010.17
2018-02-22T10:08:56.800Z,1010.17
2018-02-22T10:09:56.771Z,1010.12
2018-02-22T10:10:56.738Z,1010.18
2018-02-22T10:11:56.712Z,1010.12
2018-02-22T10:12:56.709Z,1010.20
2018-02-22T10:13:56.660Z,1010.10
2018-02-22T10:14:56.701Z,1010.17
2018-02-22T10:15:56.612Z,1010.16
2018-02-22T10:16:56.597Z,1010.10
2018-02-22T10:17:56.542Z,1010.11
2018-02-22T10:18:56.593Z,1010.10
2018-02-22T10:19:56.484Z,1010.14
2018-02-22T10:20:56.457Z,1010.12
2018-02-22T10:21:56.426Z,1010.10
2018-02-22T10:22:56.393Z,1010.09
2018-02-22T10:23:56.372Z,1010.08
2018-02-22T10:24:56.339Z,1010.09
2018-02-22T10:25:56.312Z,1010.07
2018-02-22T10:26:56.278Z,1010.04
2018-02-22T10:27:56.251Z,1010.11
2018-02-22T10:28:56.282Z,1010.08
2018-02-22T10:29:56.197Z,1010.08
2018-02-22T10:30:56.165Z,1010.12
2018-02-22T10:31:56.206Z,1010.10
2018-02-22T10:32:56.112Z,1010.14
2018-02-22T10:33:56.080Z,1010.11
2018-02-22T10:34:56.124Z,1010.08
2018-02-22T10:35:56.026Z,1010.07
2018-02-22T10:36:55.994Z,1010.05
2018-02-22T10:37:56.040Z,1010.03
2018-02-22T10:38:55.934Z,1010.07
2018-02-22T10:39:55.911Z,1010.07
2018-02-22T10:40:55.966Z,1010.06
2018-02-22T10:41:55.850Z,1010.05
2018-02-22T10:42:55.835Z,1010.05
2018-02-22T10:43:55.839Z,1010.02
2018-02-22T10:44:55.765Z,1010.03
2018-02-22T10:45:55.822Z,1009.98
2018-02-22T10:46:55.774Z,1009.97
2018-02-22T10:47:55.680Z,1009.94
2018-02-22T10:48:55.656Z,1009.90
2018-02-22T10:49:55.624Z,1009.94
2018-02-22T10:50:55.595Z,1009.96
2018-02-22T10:51:55.563Z,1009.94
2018-02-22T10:52:55.644Z,1009.90
2018-02-22T10:53:55.508Z,1009.88
2018-02-22T10:54:55.478Z,1009.92
2018-02-22T10:55:55.502Z,1009.91
2018-02-22T10:56:55.420Z,1009.91
2018-02-22T10:57:55.395Z,1009.93
2018-02-22T10:58:55.365Z,1009.94
2018-02-22T10:59:55.341Z,1009.89
2018-02-22T11:00:55.313Z,1009.96
2018-02-22T11:01:55.280Z,1009.89
2018-02-22T11:02:55.248Z,1009.89
2018-02-22T11:03:55.224Z,1009.89
2018-02-22T11:04:55.194Z,1009.87
2018-02-22T11:05:55.184Z,1009.91
2018-02-22T11:06:55.136Z,1009.81
2018-02-22T11:07:55.162Z,1009.92
2018-02-22T11:08:55.086Z,1009.90
2018-02-22T11:09:55.050Z,1009.90
2018-02-22T11:10:55.115Z,1009.86
2018-02-22T11:11:54.995Z,1009.90
2018-02-22T11:12:54.970Z,1009.87
2018-02-22T11:13:55.018Z,1009.90
2018-02-22T11:14:54.913Z,1009.87
2018-02-22T11:15:54.882Z,1009.82
2018-02-22T11:16:54.851Z,1009.78
2018-02-22T11:17:54.822Z,1009.84
2018-02-22T11:18:54.798Z,1009.78
2018-02-22T11:19:54.807Z,1009.82
2018-02-22T11:20:54.774Z,1009.87
2018-02-22T11:21:54.708Z,1009.83
2018-02-22T11:22:54.686Z,1009.79
2018-02-22T11:23:54.769Z,1009.79
2018-02-22T11:24:54.634Z,1009.78
2018-02-22T11:25:54.597Z,1009.76
2018-02-22T11:26:54.571Z,1009.80
2018-02-22T11:27:54.538Z,1009.78
2018-02-22T11:28:54.511Z,1009.78
2018-02-22T11:29:54.485Z,1009.74
2018-02-22T11:30:54.458Z,1009.74
2018-02-22T11:31:54.428Z,1009.78
2018-02-22T11:32:54.402Z,1009.73
2018-02-22T11:33:54.368Z,1009.70
2018-02-22T11:34:54.363Z,1009.63
2018-02-22T11:35:54.312Z,1009.63
2018-02-22T11:36:54.283Z,1009.63
2018-02-22T11:37:54.260Z,1009.65
2018-02-22T11:38:54.226Z,1009.66
2018-02-22T11:39:54.283Z,1009.67
2018-02-22T11:40:54.172Z,1009.60
2018-02-22T11:41:54.141Z,1009.56
2018-02-22T11:42:54.153Z,1009.56
2018-02-22T11:43:54.090Z,1009.61
2018-02-22T11:44:54.056Z,1009.57
2018-02-22T11:45:54.028Z,1009.52
2018-02-22T11:46:54.003Z,1009.51
2018-02-22T11:47:53.978Z,1009.53
2018-02-22T11:48:53.953Z,1009.41
2018-02-22T11:49:53.915Z,1009.52
2018-02-22T11:50:53.888Z,1009.49
2018-02-22T11:51:53.882Z,1009.48
2018-02-22T11:52:53.921Z,1009.54
2018-02-22T11:53:53.801Z,1009.45
2018-02-22T11:54:53.827Z,1009.44
2018-02-22T11:55:53.744Z,1009.45
2018-02-22T11:56:53.716Z,1009.42
2018-02-22T11:57:53.694Z,1009.38
2018-02-22T11:58:53.713Z,1009.48
2018-02-22T11:59:53.636Z,1009.42
2018-02-22T12:00:53.609Z,1009.44
2018-02-22T12:01:53.585Z,1009.36
2018-02-22T12:02:53.550Z,1009.48
2018-02-22T12:03:53.529Z,1009.50
2018-02-22T12:04:53.491Z,1009.38